createdAt,value
2022-09-07T00:00:19.088Z,99.90
2022-09-07T00:00:50.615Z,99.90
2022-09-07T00:01:22.156Z,99.90
2022-09-07T00:01:53.696Z,99.90
2022-09-07T00:02:25.217Z,99.90
2022-09-07T00:02:56.753Z,99.90
2022-09-07T00:03:28.421Z,99.90
2022-09-07T00:04:00.066Z,99.90
2022-09-07T00:04:31.682Z,99.90
2022-09-07T00:05:03.302Z,99.90
2022-09-07T00:05:34.863Z,99.90
2022-09-07T00:06:06.386Z,99.90
2022-09-07T00:06:37.904Z,99.90
2022-09-07T00:07:09.419Z,99.90
2022-09-07T00:07:40.935Z,99.90
2022-09-07T00:08:12.472Z,99.90
2022-09-07T00:08:43.989Z,99.90
2022-09-07T00:09:15.581Z,99.90
2022-09-07T00:09:47.100Z,99.90
2022-09-07T00:10:18.611Z,99.90
2022-09-07T00:10:50.126Z,99.90
2022-09-07T00:11:21.634Z,99.90
2022-09-07T00:11:53.142Z,99.90
2022-09-07T00:12:24.680Z,99.90
2022-09-07T00:12:56.195Z,99.90
2022-09-07T00:13:27.716Z,99.90
2022-09-07T00:13:59.244Z,99.90
2022-09-07T00:14:30.794Z,99.90
2022-09-07T00:15:02.332Z,99.90
2022-09-07T00:15:33.858Z,99.90
2022-09-07T00:16:05.528Z,99.90
2022-09-07T00:16:37.141Z,99.90
2022-09-07T00:17:08.749Z,99.90
2022-09-07T00:17:40.257Z,99.90
2022-09-07T00:18:11.779Z,99.90
2022-09-07T00:18:46.035Z,99.90
2022-09-07T00:19:17.923Z,99.90
2022-09-07T00:19:49.444Z,99.90
2022-09-07T00:20:20.967Z,99.90
2022-09-07T00:20:52.560Z,99.90
2022-09-07T00:21:24.088Z,99.90
2022-09-07T00:21:55.597Z,99.90
2022-09-07T00:22:27.115Z,99.90
2022-09-07T00:22:58.654Z,99.90
2022-09-07T00:23:30.174Z,99.90
2022-09-07T00:24:01.715Z,99.90
2022-09-07T00:24:33.275Z,99.90
2022-09-07T00:25:04.816Z,99.90
2022-09-07T00:25:36.466Z,99.90
2022-09-07T00:26:07.989Z,99.90
2022-09-07T00:26:39.505Z,99.90
2022-09-07T00:27:11.032Z,99.90
2022-09-07T00:27:42.600Z,99.90
2022-09-07T00:28:14.109Z,99.90
2022-09-07T00:28:45.644Z,99.90
2022-09-07T00:29:17.163Z,99.90
2022-09-07T00:29:48.727Z,99.90
2022-09-07T00:30:20.243Z,99.90
2022-09-07T00:30:51.757Z,99.90
2022-09-07T00:31:23.404Z,99.90
2022-09-07T00:31:55.005Z,99.90
2022-09-07T00:32:26.601Z,99.90
2022-09-07T00:32:58.109Z,99.90
2022-09-07T00:33:29.614Z,99.90
2022-09-07T00:34:01.155Z,99.90
2022-09-07T00:34:32.667Z,99.90
2022-09-07T00:35:04.190Z,99.90
2022-09-07T00:35:35.721Z,99.90
2022-09-07T00:36:07.250Z,99.90
2022-09-07T00:36:38.771Z,99.90
2022-09-07T00:37:10.283Z,99.90
2022-09-07T00:37:41.809Z,99.90
2022-09-07T00:38:13.354Z,99.90
2022-09-07T00:38:44.875Z,99.90
2022-09-07T00:39:16.414Z,99.90
2022-09-07T00:39:47.959Z,99.90
2022-09-07T00:40:19.514Z,99.90
2022-09-07T00:40:51.051Z,99.90
2022-09-07T00:41:22.638Z,99.90
2022-09-07T00:41:54.158Z,99.90
2022-09-07T00:42:25.678Z,99.90
2022-09-07T00:42:57.308Z,99.90
2022-09-07T00:43:28.981Z,99.90
2022-09-07T00:44:00.497Z,99.90
2022-09-07T00:44:32.075Z,99.90
2022-09-07T00:45:03.585Z,99.90
2022-09-07T00:45:35.098Z,99.90
2022-09-07T00:46:06.636Z,99.90
2022-09-07T00:46:38.270Z,99.90
2022-09-07T00:47:09.815Z,99.90
2022-09-07T00:47:41.325Z,99.90
2022-09-07T00:48:12.833Z,99.90
2022-09-07T00:48:44.361Z,99.90
2022-09-07T00:49:15.876Z,99.90
2022-09-07T00:49:47.455Z,99.90
2022-09-07T00:50:18.978Z,99.90
2022-09-07T00:50:50.505Z,99.90
2022-09-07T01:05:44.510Z,83.40
2022-09-07T01:06:16.300Z,84.00
2022-09-07T01:06:47.928Z,84.00
2022-09-07T01:07:19.514Z,84.20
2022-09-07T01:07:51.100Z,84.90
2022-09-07T01:08:22.684Z,84.20
2022-09-07T01:08:54.268Z,84.90
2022-09-07T01:09:25.886Z,84.00
2022-09-07T01:09:57.576Z,84.10
2022-09-07T01:10:29.157Z,84.20
2022-09-07T01:11:01.089Z,84.10
2022-09-07T01:11:32.709Z,84.20
2022-09-07T01:12:04.293Z,84.20
2022-09-07T01:12:35.901Z,84.20
2022-09-07T01:13:07.601Z,84.30
2022-09-07T01:13:39.190Z,84.20
2022-09-07T01:14:10.829Z,84.20
2022-09-07T01:14:42.562Z,84.20
2022-09-07T01:15:14.148Z,84.20
2022-09-07T01:15:45.794Z,84.20
2022-09-07T01:16:17.520Z,84.30
2022-09-07T01:16:49.139Z,84.20
2022-09-07T01:17:20.744Z,84.20
2022-09-07T01:17:52.503Z,84.20
2022-09-07T01:18:24.093Z,84.20
2022-09-07T01:18:55.756Z,84.30
2022-09-07T01:19:27.375Z,84.40
2022-09-07T01:19:58.967Z,84.20
2022-09-07T01:20:30.571Z,84.30
2022-09-07T01:21:02.231Z,84.30
2022-09-07T01:21:33.828Z,84.30
2022-09-07T01:22:05.497Z,84.30
2022-09-07T01:22:37.097Z,84.20
2022-09-07T01:23:08.744Z,84.30
2022-09-07T01:23:40.355Z,84.30
2022-09-07T01:24:11.994Z,84.30
2022-09-07T01:24:43.649Z,84.30
2022-09-07T01:25:15.309Z,84.30
2022-09-07T01:25:46.897Z,84.30
2022-09-07T01:26:18.635Z,84.30
2022-09-07T01:26:50.230Z,84.30
2022-09-07T01:27:21.800Z,84.40
2022-09-07T01:27:53.395Z,84.50
2022-09-07T01:28:25.109Z,84.40
2022-09-07T01:28:56.798Z,84.30
2022-09-07T01:29:28.527Z,84.40
2022-09-07T01:30:00.178Z,84.40
2022-09-07T01:30:31.853Z,84.30
2022-09-07T01:31:03.458Z,84.30
2022-09-07T01:31:35.136Z,85.00
2022-09-07T01:32:06.754Z,84.30
2022-09-07T01:32:38.504Z,84.30
2022-09-07T01:33:10.099Z,84.20
2022-09-07T01:33:41.696Z,84.20
2022-09-07T01:34:13.272Z,84.20
2022-09-07T01:34:44.881Z,84.20
2022-09-07T01:35:16.516Z,84.20
2022-09-07T01:35:48.128Z,84.20
2022-09-07T01:36:19.711Z,84.20
2022-09-07T01:36:51.447Z,84.20
2022-09-07T01:54:32.967Z,83.60
2022-09-07T01:55:04.579Z,84.20
2022-09-07T01:55:36.204Z,84.30
2022-09-07T01:56:07.843Z,84.30
2022-09-07T01:56:39.439Z,84.30
2022-09-07T01:57:11.037Z,84.30
2022-09-07T01:57:42.699Z,84.30
2022-09-07T01:58:14.297Z,84.30
2022-09-07T01:58:45.872Z,84.30
2022-09-07T01:59:17.530Z,84.30
2022-09-07T01:59:49.116Z,84.30
2022-09-07T02:00:20.697Z,84.40
2022-09-07T02:00:52.409Z,84.30
2022-09-07T02:01:24.040Z,84.30
2022-09-07T02:01:55.796Z,84.30
2022-09-07T02:02:27.534Z,84.30
2022-09-07T02:02:59.186Z,84.30
2022-09-07T02:03:30.822Z,84.30
2022-09-07T02:04:02.549Z,84.40
2022-09-07T02:04:34.153Z,84.30
2022-09-07T02:05:05.762Z,84.30
2022-09-07T02:05:37.458Z,84.30
2022-09-07T02:06:09.088Z,84.30
2022-09-07T02:06:40.694Z,84.30
2022-09-07T02:07:12.310Z,84.40
2022-09-07T02:07:43.907Z,84.30
2022-09-07T02:08:15.498Z,84.40
2022-09-07T02:08:47.098Z,84.50
2022-09-07T02:09:18.687Z,84.40
2022-09-07T02:09:50.336Z,84.50
2022-09-07T02:10:21.923Z,84.50
2022-09-07T02:10:53.675Z,84.50
2022-09-07T02:11:25.256Z,84.50
2022-09-07T02:13:56.621Z,84.50
2022-09-07T02:14:28.234Z,84.60
2022-09-07T02:14:59.843Z,84.50
2022-09-07T02:15:31.546Z,84.50
2022-09-07T02:16:03.236Z,84.40
2022-09-07T02:16:34.875Z,84.50
2022-09-07T02:17:06.518Z,84.50
2022-09-07T02:17:38.123Z,84.50
2022-09-07T02:18:09.762Z,84.50
2022-09-07T02:18:41.562Z,84.50
2022-09-07T02:19:13.214Z,84.60
2022-09-07T02:19:44.826Z,84.50
2022-09-07T02:20:16.587Z,84.50
2022-09-07T02:20:48.172Z,84.50
2022-09-07T02:21:19.786Z,84.50
2022-09-07T02:21:51.379Z,84.50
2022-09-07T02:22:22.983Z,84.50
2022-09-07T02:22:54.581Z,84.60
2022-09-07T02:23:26.168Z,84.50
2022-09-07T02:23:57.879Z,84.50
2022-09-07T02:24:29.474Z,84.50
2022-09-07T02:25:01.072Z,84.60
2022-09-07T02:25:32.659Z,84.50
2022-09-07T02:26:04.249Z,84.50
2022-09-07T02:26:35.876Z,84.60
2022-09-07T02:27:07.524Z,84.50
2022-09-07T02:27:39.125Z,84.50
2022-09-07T02:28:10.697Z,84.50
2022-09-07T02:28:42.393Z,84.50
2022-09-07T02:29:13.990Z,84.50
2022-09-07T02:29:45.586Z,84.50
2022-09-07T02:30:17.222Z,84.50
2022-09-07T02:30:49.003Z,84.50
2022-09-07T02:31:20.805Z,84.40
2022-09-07T02:31:52.505Z,84.40
2022-09-07T02:32:24.135Z,84.40
2022-09-07T02:32:55.771Z,84.50
2022-09-07T02:33:27.363Z,84.50
2022-09-07T02:33:58.979Z,84.50
2022-09-07T02:34:30.647Z,84.50
2022-09-07T02:35:02.243Z,84.50
2022-09-07T02:35:33.903Z,84.40
2022-09-07T02:36:05.491Z,84.50
2022-09-07T02:36:37.141Z,84.40
2022-09-07T02:37:08.780Z,84.40
2022-09-07T02:37:40.488Z,84.50
2022-09-07T02:38:12.105Z,84.50
2022-09-07T02:38:43.757Z,84.50
2022-09-07T02:39:15.340Z,85.20
2022-09-07T02:39:46.951Z,84.50
2022-09-07T02:40:18.604Z,84.50
2022-09-07T02:40:50.194Z,84.50
2022-09-07T02:41:21.773Z,84.50
2022-09-07T02:41:53.393Z,84.60
2022-09-07T02:42:25.018Z,84.50
2022-09-07T02:42:56.608Z,84.50
2022-09-07T02:43:28.208Z,84.50
2022-09-07T02:43:59.822Z,84.50
2022-09-07T02:44:31.430Z,84.50
2022-09-07T02:45:03.046Z,84.50
2022-09-07T02:45:34.772Z,84.50
2022-09-07T02:46:06.478Z,84.50
2022-09-07T02:46:38.246Z,84.50
2022-09-07T02:47:09.854Z,84.60
2022-09-07T02:47:41.463Z,84.60
2022-09-07T02:48:13.099Z,84.50
2022-09-07T02:48:44.728Z,84.50
2022-09-07T02:49:16.360Z,84.50
2022-09-07T02:49:47.939Z,84.50
2022-09-07T02:50:19.520Z,84.50
2022-09-07T02:50:51.108Z,84.50
2022-09-07T02:51:22.748Z,84.60
2022-09-07T02:51:54.340Z,84.50
2022-09-07T02:52:25.945Z,84.50
2022-09-07T02:52:57.564Z,84.60
2022-09-07T02:53:29.166Z,84.50
2022-09-07T02:54:00.753Z,84.50
2022-09-07T02:54:32.358Z,84.50
2022-09-07T02:55:03.972Z,84.50
2022-09-07T02:55:35.775Z,84.50
2022-09-07T02:56:07.365Z,84.50
2022-09-07T02:56:39.078Z,84.50
2022-09-07T02:57:10.682Z,84.50
2022-09-07T02:57:42.350Z,84.50
2022-09-07T02:58:13.952Z,84.50
2022-09-07T02:58:45.633Z,84.50
2022-09-07T02:59:17.227Z,84.50
2022-09-07T02:59:48.855Z,84.50
2022-09-07T03:00:20.476Z,84.60
2022-09-07T03:00:52.072Z,84.50
2022-09-07T03:01:23.742Z,84.50
2022-09-07T03:01:55.571Z,84.60
2022-09-07T03:02:27.204Z,84.50
2022-09-07T03:02:58.876Z,84.50
2022-09-07T03:03:30.509Z,84.50
2022-09-07T03:04:02.101Z,84.40
2022-09-07T03:04:33.705Z,84.50
2022-09-07T03:05:05.280Z,84.50
2022-09-07T03:05:36.868Z,84.50
2022-09-07T03:06:08.611Z,84.50
2022-09-07T03:06:40.189Z,84.50
2022-09-07T03:07:11.817Z,84.50
2022-09-07T03:07:44.359Z,84.50
2022-09-07T03:08:16.052Z,84.50
2022-09-07T03:08:47.650Z,84.50
2022-09-07T03:09:19.242Z,84.50
2022-09-07T03:09:50.830Z,84.50
2022-09-07T03:10:22.439Z,84.50
2022-09-07T03:10:54.027Z,84.50
2022-09-07T03:11:25.614Z,84.50
2022-09-07T03:11:57.198Z,84.50
2022-09-07T03:12:28.801Z,84.60
2022-09-07T03:13:00.455Z,84.50
2022-09-07T03:13:32.131Z,84.50
2022-09-07T03:14:03.743Z,84.50
2022-09-07T03:14:35.422Z,84.50
2022-09-07T03:15:07.016Z,84.60
2022-09-07T03:15:38.661Z,84.50
2022-09-07T03:16:10.372Z,84.50
2022-09-07T03:16:42.008Z,84.50
2022-09-07T03:17:13.593Z,84.50
2022-09-07T03:17:45.229Z,84.50
2022-09-07T03:18:16.814Z,84.50
2022-09-07T03:18:48.453Z,84.50
2022-09-07T03:19:20.055Z,84.50
2022-09-07T03:19:51.659Z,84.50
2022-09-07T03:20:23.349Z,84.50
2022-09-07T03:20:54.953Z,84.50
2022-09-07T03:21:26.558Z,84.50
2022-09-07T03:21:58.185Z,84.50
2022-09-07T03:22:29.778Z,84.50
2022-09-07T03:23:01.387Z,84.50
2022-09-07T03:23:32.990Z,84.50
2022-09-07T03:24:04.747Z,84.50
2022-09-07T03:24:36.419Z,84.50
2022-09-07T03:25:08.087Z,84.50
2022-09-07T03:25:39.698Z,84.50
2022-09-07T03:26:11.314Z,84.50
2022-09-07T03:26:42.911Z,84.50
2022-09-07T03:27:14.536Z,84.50
2022-09-07T03:27:46.128Z,84.50
2022-09-07T03:28:17.756Z,84.50
2022-09-07T03:28:49.444Z,84.40
2022-09-07T03:29:21.041Z,84.50
2022-09-07T03:29:52.626Z,84.50
2022-09-07T03:30:24.242Z,84.50
2022-09-07T03:30:55.950Z,84.40
2022-09-07T03:31:27.579Z,84.40
2022-09-07T03:31:59.209Z,84.50
2022-09-07T03:32:30.870Z,84.50
2022-09-07T03:33:02.457Z,84.40
2022-09-07T03:33:34.160Z,84.40
2022-09-07T03:34:05.835Z,84.50
2022-09-07T03:34:37.438Z,84.40
2022-09-07T03:35:09.073Z,84.50
2022-09-07T03:35:40.702Z,84.50
2022-09-07T03:36:12.378Z,84.50
2022-09-07T03:36:43.972Z,84.50
2022-09-07T03:37:15.639Z,84.50
2022-09-07T03:37:47.262Z,84.50
2022-09-07T03:38:18.872Z,84.50
2022-09-07T03:38:50.456Z,84.50
2022-09-07T03:39:22.067Z,84.50
2022-09-07T03:39:53.930Z,84.50
2022-09-07T03:40:25.738Z,84.50
2022-09-07T03:40:57.325Z,84.50
2022-09-07T03:41:28.948Z,84.50
2022-09-07T03:42:00.533Z,85.30
2022-09-07T03:42:32.113Z,84.50
2022-09-07T03:43:03.735Z,84.50
2022-09-07T03:43:35.344Z,84.50
2022-09-07T03:44:06.932Z,84.60
2022-09-07T03:44:38.666Z,84.50
2022-09-07T03:45:10.289Z,84.60
2022-09-07T03:45:42.019Z,84.60
2022-09-07T03:46:13.723Z,84.60
2022-09-07T03:46:45.552Z,84.60
2022-09-07T03:47:17.146Z,84.60
2022-09-07T03:47:48.819Z,84.60
2022-09-07T03:48:20.407Z,84.50
2022-09-07T03:48:51.996Z,84.60
2022-09-07T03:49:23.591Z,84.60
2022-09-07T03:49:55.282Z,84.60
2022-09-07T03:50:26.914Z,84.60
2022-09-07T03:50:58.676Z,84.60
2022-09-07T03:51:30.384Z,84.60
2022-09-07T03:52:02.023Z,84.60
2022-09-07T03:52:33.728Z,84.60
2022-09-07T03:53:05.325Z,84.50
2022-09-07T03:53:36.938Z,84.60
2022-09-07T03:54:08.567Z,84.50
2022-09-07T03:54:40.149Z,84.60
2022-09-07T03:55:11.743Z,84.50
2022-09-07T03:55:43.328Z,84.50
2022-09-07T03:56:14.976Z,84.50
2022-09-07T03:56:46.558Z,84.50
2022-09-07T03:57:18.193Z,84.60
2022-09-07T03:57:49.794Z,84.50
2022-09-07T03:58:21.390Z,84.50
2022-09-07T03:58:52.991Z,84.50
2022-09-07T03:59:24.790Z,84.50
2022-09-07T03:59:56.374Z,84.50
2022-09-07T04:00:27.971Z,84.50
2022-09-07T04:00:59.732Z,84.50
2022-09-07T04:01:31.617Z,84.40
2022-09-07T04:02:03.358Z,84.50
2022-09-07T04:02:35.069Z,84.50
2022-09-07T04:03:06.688Z,84.40
2022-09-07T04:03:38.281Z,84.50
2022-09-07T04:04:09.896Z,84.50
2022-09-07T04:04:41.536Z,84.50
2022-09-07T04:05:13.198Z,84.50
2022-09-07T04:05:44.846Z,84.50
2022-09-07T04:06:16.585Z,84.50
2022-09-07T04:06:48.168Z,84.60
2022-09-07T04:07:19.768Z,84.50
2022-09-07T04:07:51.351Z,84.50
2022-09-07T04:08:22.965Z,84.60
2022-09-07T04:08:54.605Z,84.50
2022-09-07T04:09:26.362Z,84.50
2022-09-07T04:09:58.037Z,84.60
2022-09-07T04:10:29.669Z,84.50
2022-09-07T04:11:01.266Z,84.50
2022-09-07T04:11:32.853Z,84.50
2022-09-07T04:12:04.489Z,84.60
2022-09-07T04:12:36.142Z,84.60
2022-09-07T04:13:07.735Z,84.50
2022-09-07T04:13:39.350Z,84.60
2022-09-07T04:14:10.960Z,84.70
2022-09-07T04:14:42.555Z,84.60
2022-09-07T04:15:14.141Z,84.60
2022-09-07T04:15:45.792Z,84.60
2022-09-07T04:16:17.543Z,84.60
2022-09-07T04:16:49.317Z,84.60
2022-09-07T04:17:20.988Z,84.70
2022-09-07T04:17:52.616Z,84.60
2022-09-07T04:18:24.217Z,84.60
2022-09-07T04:18:55.819Z,84.70
2022-09-07T04:19:27.489Z,84.60
2022-09-07T04:19:59.089Z,84.60
2022-09-07T04:20:30.673Z,84.50
2022-09-07T04:21:02.309Z,84.60
2022-09-07T04:21:33.890Z,84.60
2022-09-07T04:22:05.570Z,84.50
2022-09-07T04:22:37.190Z,84.50
2022-09-07T04:23:08.774Z,84.50
2022-09-07T04:23:40.393Z,84.50
2022-09-07T04:24:12.046Z,84.40
2022-09-07T04:24:43.642Z,84.30
2022-09-07T04:25:15.265Z,84.30
2022-09-07T04:25:46.887Z,84.40
2022-09-07T04:26:18.507Z,84.40
2022-09-07T04:26:50.111Z,84.40
2022-09-07T04:27:21.744Z,84.40
2022-09-07T04:27:53.382Z,84.50
2022-09-07T04:28:25.035Z,84.50
2022-09-07T04:28:56.732Z,84.40
2022-09-07T04:29:28.348Z,84.50
2022-09-07T04:29:59.948Z,84.50
2022-09-07T04:30:31.701Z,84.40
2022-09-07T04:31:03.415Z,84.40
2022-09-07T04:31:35.157Z,84.50
2022-09-07T04:32:06.747Z,84.50
2022-09-07T04:32:38.403Z,84.50
2022-09-07T04:33:09.988Z,84.50
2022-09-07T04:33:41.569Z,84.50
2022-09-07T04:34:13.185Z,84.50
2022-09-07T04:34:44.814Z,84.50
2022-09-07T04:35:16.426Z,84.50
2022-09-07T04:35:48.110Z,84.50
2022-09-07T04:36:20.049Z,84.50
2022-09-07T04:36:51.696Z,84.50
2022-09-07T04:37:23.424Z,84.60
2022-09-07T04:37:55.036Z,84.50
2022-09-07T04:38:26.784Z,84.50
2022-09-07T04:38:58.477Z,84.50
2022-09-07T04:39:30.138Z,84.50
2022-09-07T04:40:01.813Z,84.60
2022-09-07T04:40:33.431Z,84.60
2022-09-07T04:41:05.044Z,84.60
2022-09-07T04:41:36.765Z,84.70
2022-09-07T04:42:08.375Z,84.60
2022-09-07T04:42:40.004Z,84.60
2022-09-07T04:43:11.697Z,84.50
2022-09-07T04:43:43.284Z,85.40
2022-09-07T04:44:16.911Z,84.60
2022-09-07T04:44:48.909Z,84.60
2022-09-07T04:45:20.588Z,84.60
2022-09-07T04:45:52.252Z,84.70
2022-09-07T04:46:23.982Z,84.70
2022-09-07T04:46:55.702Z,84.70
2022-09-07T04:47:27.425Z,84.70
2022-09-07T04:47:59.098Z,84.60
2022-09-07T04:48:30.754Z,84.60
2022-09-07T04:49:02.416Z,84.60
2022-09-07T04:49:34.024Z,84.70
2022-09-07T04:50:05.614Z,84.50
2022-09-07T04:50:37.214Z,84.60
2022-09-07T04:51:08.847Z,84.60
2022-09-07T04:51:40.606Z,84.60
2022-09-07T04:52:12.195Z,84.50
2022-09-07T04:52:43.812Z,84.60
2022-09-07T04:53:15.401Z,84.60
2022-09-07T04:53:47.033Z,84.60
2022-09-07T04:54:18.699Z,84.60
2022-09-07T04:54:50.375Z,84.60
2022-09-07T04:55:22.004Z,84.60
2022-09-07T04:55:53.596Z,84.60
2022-09-07T04:56:25.187Z,84.60
2022-09-07T04:56:56.800Z,84.60
2022-09-07T04:57:28.475Z,84.60
2022-09-07T04:58:00.073Z,84.60
2022-09-07T04:58:31.894Z,84.60
2022-09-07T04:59:03.742Z,84.60
2022-09-07T04:59:35.387Z,84.60
2022-09-07T05:00:06.969Z,84.60
2022-09-07T05:00:38.618Z,84.60
2022-09-07T05:01:10.247Z,84.70
2022-09-07T05:01:41.926Z,84.60
2022-09-07T05:02:13.583Z,84.70
2022-09-07T05:02:45.276Z,84.60
2022-09-07T05:03:17.087Z,84.60
2022-09-07T05:03:48.710Z,84.60
2022-09-07T05:04:20.396Z,84.60
2022-09-07T05:04:52.063Z,84.60
2022-09-07T05:05:23.659Z,84.60
2022-09-07T05:05:55.255Z,84.60
2022-09-07T05:06:26.867Z,84.60
2022-09-07T05:06:58.561Z,84.60
2022-09-07T05:07:30.317Z,84.60
2022-09-07T05:08:01.925Z,84.60
2022-09-07T05:08:33.517Z,84.60
2022-09-07T05:09:05.096Z,84.60
2022-09-07T05:09:36.699Z,84.70
2022-09-07T05:10:08.308Z,84.60
2022-09-07T05:10:39.893Z,84.60
2022-09-07T05:11:11.689Z,84.60
2022-09-07T05:11:43.281Z,84.60
2022-09-07T05:12:14.871Z,84.60
2022-09-07T05:12:46.469Z,84.60
2022-09-07T05:13:18.065Z,84.70
2022-09-07T05:13:49.643Z,84.60
2022-09-07T05:14:21.254Z,84.60
2022-09-07T05:14:52.844Z,84.70
2022-09-07T05:15:24.567Z,84.60
2022-09-07T05:15:56.163Z,84.60
2022-09-07T05:16:27.944Z,84.60
2022-09-07T05:16:59.675Z,84.60
2022-09-07T05:17:31.338Z,84.60
2022-09-07T05:18:02.919Z,84.50
2022-09-07T05:18:34.647Z,84.60
2022-09-07T05:19:06.247Z,84.50
2022-09-07T05:19:37.908Z,84.50
2022-09-07T05:20:09.574Z,84.50
2022-09-07T05:20:41.165Z,84.60
2022-09-07T05:21:12.753Z,84.50
2022-09-07T05:21:44.395Z,84.50
2022-09-07T05:22:16.057Z,84.50
2022-09-07T05:22:47.683Z,84.50
2022-09-07T05:23:19.261Z,84.50
2022-09-07T05:23:50.865Z,84.50
2022-09-07T05:24:22.443Z,84.50
2022-09-07T05:24:54.044Z,84.50
2022-09-07T05:25:25.742Z,84.50
2022-09-07T05:25:57.332Z,84.50
2022-09-07T05:26:28.959Z,84.50
2022-09-07T05:27:00.671Z,84.50
2022-09-07T05:27:32.340Z,84.60
2022-09-07T05:28:03.945Z,84.60
2022-09-07T05:28:35.660Z,84.60
2022-09-07T05:31:21.971Z,84.60
2022-09-07T05:31:53.601Z,84.60
2022-09-07T05:32:25.193Z,84.60
2022-09-07T05:32:56.917Z,84.60
2022-09-07T05:34:35.493Z,84.60
2022-09-07T05:35:07.137Z,84.60
2022-09-07T05:35:38.726Z,84.60
2022-09-07T05:36:10.329Z,84.60
2022-09-07T05:36:41.947Z,84.70
2022-09-07T05:37:13.590Z,84.60
2022-09-07T05:37:45.199Z,84.60
2022-09-07T05:38:17.074Z,84.70
2022-09-07T05:38:48.678Z,84.60
2022-09-07T05:39:20.308Z,84.60
2022-09-07T05:39:51.944Z,84.60
2022-09-07T05:40:23.564Z,84.60
2022-09-07T05:40:55.166Z,84.70
2022-09-07T05:41:26.766Z,84.70
2022-09-07T05:41:58.404Z,84.60
2022-09-07T05:42:30.009Z,84.60
2022-09-07T05:43:01.710Z,84.70
2022-09-07T05:43:33.494Z,84.60
2022-09-07T05:44:56.684Z,84.60
2022-09-07T05:45:28.308Z,84.60
2022-09-07T05:45:59.948Z,84.70
2022-09-07T05:46:31.673Z,84.60
2022-09-07T05:47:03.304Z,84.60
2022-09-07T05:47:34.920Z,84.60
2022-09-07T05:48:06.506Z,84.60
2022-09-07T05:48:38.093Z,84.70
2022-09-07T05:49:09.707Z,84.70
2022-09-07T05:49:41.346Z,84.60
2022-09-07T05:50:13.040Z,84.60
2022-09-07T05:50:44.690Z,84.60
2022-09-07T05:51:16.286Z,84.60
2022-09-07T05:51:47.870Z,84.60
2022-09-07T05:52:19.483Z,84.60
2022-09-07T05:52:51.078Z,84.60
2022-09-07T05:53:22.670Z,84.60
2022-09-07T05:53:54.271Z,84.60
2022-09-07T05:54:25.938Z,84.60
2022-09-07T05:55:07.746Z,84.60
2022-09-07T05:55:45.016Z,84.60
2022-09-07T05:56:16.612Z,84.60
2022-09-07T05:56:48.188Z,84.60
2022-09-07T05:57:19.816Z,84.60
2022-09-07T05:57:51.521Z,84.60
2022-09-07T05:58:23.151Z,84.60
2022-09-07T05:58:54.748Z,84.60
2022-09-07T05:59:26.385Z,84.60
2022-09-07T05:59:57.969Z,84.60
2022-09-07T06:00:29.565Z,84.60
2022-09-07T06:01:01.153Z,84.60
2022-09-07T06:01:32.746Z,84.60
2022-09-07T06:02:04.511Z,84.60
2022-09-07T06:02:39.614Z,84.60
2022-09-07T06:03:11.716Z,85.40
2022-09-07T06:03:43.416Z,84.60
2022-09-07T06:04:15.033Z,84.70
2022-09-07T06:04:46.706Z,84.60
2022-09-07T06:05:18.346Z,84.60
2022-09-07T06:05:52.018Z,84.60
2022-09-07T06:06:23.625Z,84.60
2022-09-07T06:07:46.889Z,84.70
2022-09-07T06:08:18.556Z,84.60
2022-09-07T06:08:50.155Z,84.70
2022-09-07T06:09:21.767Z,84.70
2022-09-07T06:10:45.248Z,84.60
2022-09-07T06:11:16.968Z,84.70
2022-09-07T06:11:48.663Z,84.70
2022-09-07T06:12:20.248Z,84.70
2022-09-07T06:12:51.849Z,84.70
2022-09-07T06:13:23.573Z,84.70
2022-09-07T06:13:55.160Z,84.60
2022-09-07T06:14:26.755Z,84.60
2022-09-07T06:14:58.393Z,84.70
2022-09-07T06:15:29.991Z,84.70
2022-09-07T06:16:01.591Z,84.60
2022-09-07T06:16:33.243Z,84.60
2022-09-07T06:17:04.886Z,84.70
2022-09-07T06:17:36.539Z,84.60
2022-09-07T06:18:08.142Z,84.70
2022-09-07T06:18:39.822Z,84.60
2022-09-07T06:19:11.457Z,84.60
2022-09-07T06:19:43.055Z,84.60
2022-09-07T06:20:14.703Z,84.60
2022-09-07T06:20:46.361Z,84.60
2022-09-07T06:21:17.976Z,84.60
2022-09-07T06:21:49.595Z,84.60
2022-09-07T06:22:21.192Z,84.60
2022-09-07T06:22:52.843Z,84.60
2022-09-07T06:23:24.623Z,84.70
2022-09-07T06:23:56.312Z,84.70
2022-09-07T06:24:27.921Z,84.60
2022-09-07T06:24:59.640Z,84.70
2022-09-07T06:25:31.227Z,84.70
2022-09-07T06:26:02.812Z,84.70
2022-09-07T06:26:34.552Z,84.70
2022-09-07T06:27:06.144Z,84.70
2022-09-07T06:27:37.787Z,84.70
2022-09-07T06:28:09.506Z,84.70
2022-09-07T06:28:41.094Z,84.70
2022-09-07T06:29:12.686Z,84.80
2022-09-07T06:29:44.280Z,84.80
2022-09-07T06:30:15.934Z,84.80
2022-09-07T06:30:47.526Z,84.80
2022-09-07T06:31:19.383Z,84.70
2022-09-07T06:33:15.843Z,84.70
2022-09-07T06:33:48.493Z,84.70
2022-09-07T06:34:20.118Z,84.80
2022-09-07T06:34:51.715Z,84.80
2022-09-07T06:35:23.385Z,84.80
2022-09-07T06:35:55.016Z,84.80
2022-09-07T06:36:26.628Z,84.80
2022-09-07T06:36:58.213Z,84.80
2022-09-07T06:37:29.790Z,84.80
2022-09-07T06:38:01.393Z,84.90
2022-09-07T06:38:33.042Z,84.80
2022-09-07T06:39:04.673Z,85.00
2022-09-07T06:39:36.373Z,84.80
2022-09-07T06:40:08.112Z,84.90
2022-09-07T06:40:39.777Z,84.90
2022-09-07T06:42:02.967Z,84.90
2022-09-07T06:42:34.848Z,85.00
2022-09-07T06:43:06.454Z,85.00
2022-09-07T06:43:38.729Z,84.90
2022-09-07T06:44:12.403Z,85.00
2022-09-07T06:44:44.027Z,84.90
2022-09-07T06:45:15.768Z,84.90
2022-09-07T06:45:47.374Z,84.90
2022-09-07T06:47:10.589Z,84.90
2022-09-07T06:47:42.183Z,85.00
2022-09-07T06:48:13.771Z,85.00
2022-09-07T06:48:45.352Z,85.00
2022-09-07T06:49:16.964Z,85.00
2022-09-07T06:49:48.669Z,85.00
2022-09-07T06:50:20.246Z,84.90
2022-09-07T06:50:51.833Z,85.00
2022-09-07T06:51:23.500Z,85.00
2022-09-07T06:51:55.137Z,85.00
2022-09-07T06:52:26.925Z,85.00
2022-09-07T06:53:50.343Z,85.00
2022-09-07T06:55:13.647Z,85.00
2022-09-07T06:55:45.270Z,85.10
2022-09-07T06:56:16.918Z,85.10
2022-09-07T06:56:48.573Z,85.00
2022-09-07T06:57:20.172Z,85.10
2022-09-07T06:57:51.767Z,85.00
2022-09-07T06:58:23.363Z,85.10
2022-09-07T06:58:54.963Z,85.10
2022-09-07T06:59:26.562Z,85.20
2022-09-07T06:59:58.155Z,85.10
2022-09-07T07:00:29.779Z,85.10
2022-09-07T07:01:01.475Z,85.10
2022-09-07T07:01:33.088Z,85.10
2022-09-07T07:02:04.715Z,85.10
2022-09-07T07:02:36.333Z,85.10
2022-09-07T07:03:07.961Z,85.10
2022-09-07T07:03:39.621Z,85.10
2022-09-07T07:04:11.269Z,85.10
2022-09-07T07:04:42.879Z,85.20
2022-09-07T07:05:14.452Z,85.10
2022-09-07T07:05:46.061Z,85.10
2022-09-07T07:06:17.642Z,85.10
2022-09-07T07:06:49.300Z,85.10
2022-09-07T07:07:21.016Z,85.10
2022-09-07T07:07:52.648Z,85.20
2022-09-07T07:08:24.247Z,85.20
2022-09-07T07:08:55.862Z,85.20
2022-09-07T07:09:27.475Z,85.20
2022-09-07T07:09:59.068Z,85.20
2022-09-07T07:10:30.760Z,85.20
2022-09-07T07:11:02.402Z,85.20
2022-09-07T07:11:33.995Z,85.20
2022-09-07T07:12:05.615Z,85.20
2022-09-07T07:13:07.635Z,85.20
2022-09-07T07:13:39.388Z,85.20
2022-09-07T07:14:11.013Z,85.20
2022-09-07T07:14:45.196Z,85.10
2022-09-07T07:15:17.009Z,85.10
2022-09-07T07:15:48.597Z,85.10
2022-09-07T07:16:20.211Z,85.10
2022-09-07T07:16:51.942Z,85.10
2022-09-07T07:17:23.553Z,85.20
2022-09-07T07:18:00.378Z,85.20
2022-09-07T07:18:34.257Z,85.20
2022-09-07T07:19:06.054Z,85.20
2022-09-07T07:19:37.687Z,85.10
2022-09-07T07:20:09.289Z,85.10
2022-09-07T07:20:40.881Z,85.10
2022-09-07T07:21:12.475Z,85.20
2022-09-07T07:22:10.397Z,85.10
2022-09-07T07:22:46.727Z,85.20
2022-09-07T07:23:18.719Z,85.20
2022-09-07T07:23:50.447Z,85.10
2022-09-07T07:24:22.072Z,85.30
2022-09-07T07:24:53.661Z,85.30
2022-09-07T07:25:25.257Z,85.20
2022-09-07T07:25:56.873Z,85.20
2022-09-07T07:26:28.472Z,85.20
2022-09-07T07:27:00.086Z,85.20
2022-09-07T07:27:31.778Z,85.30
2022-09-07T07:29:03.391Z,85.20
2022-09-07T07:29:35.816Z,85.30
2022-09-07T07:30:07.390Z,85.30
2022-09-07T07:30:38.970Z,85.20
2022-09-07T07:31:13.173Z,85.40
2022-09-07T07:31:44.981Z,85.30
2022-09-07T07:32:16.638Z,85.30
2022-09-07T07:32:48.225Z,85.20
2022-09-07T07:33:19.890Z,85.40
2022-09-07T07:33:51.717Z,85.30
2022-09-07T07:34:23.385Z,85.20